createdAt,value
2022-12-31T00:00:12.065Z,100212.16
2022-12-31T00:02:39.879Z,100213.97
2022-12-31T00:05:07.692Z,100208.41
2022-12-31T00:10:03.384Z,100203.53
2022-12-31T00:12:30.057Z,100203.00
2022-12-31T00:14:56.772Z,100202.66
2022-12-31T00:17:23.403Z,100197.69
2022-12-31T00:19:50.064Z,100195.50
2022-12-31T00:22:16.728Z,100195.13
2022-12-31T00:24:43.438Z,100192.53
2022-12-31T00:27:10.124Z,100195.22
2022-12-31T00:29:36.795Z,100187.38
2022-12-31T00:32:06.536Z,100184.34
2022-12-31T00:34:33.166Z,100185.56
2022-12-31T00:36:59.779Z,100183.53
2022-12-31T00:39:26.476Z,100185.22
2022-12-31T00:41:53.113Z,100182.88
2022-12-31T00:44:19.869Z,100181.19
2022-12-31T00:46:46.592Z,100174.19
2022-12-31T00:49:13.227Z,100171.22
2022-12-31T00:51:39.912Z,100162.66
2022-12-31T00:54:06.590Z,100163.63
2022-12-31T00:56:33.204Z,100154.53
2022-12-31T00:59:00.897Z,100154.69
2022-12-31T01:01:31.648Z,100146.66
2022-12-31T01:04:05.612Z,100133.28
2022-12-31T01:06:32.931Z,100138.59
2022-12-31T01:08:59.690Z,100141.34
2022-12-31T01:11:29.449Z,100148.50
2022-12-31T01:14:00.449Z,100141.69
2022-12-31T01:16:32.926Z,100137.66
2022-12-31T01:19:03.421Z,100145.47
2022-12-31T01:21:31.073Z,100139.09
2022-12-31T01:23:59.220Z,100134.03
2022-12-31T01:26:27.498Z,100142.25
2022-12-31T01:28:54.381Z,100145.13
2022-12-31T01:31:23.768Z,100152.84
2022-12-31T01:33:51.902Z,100133.19
2022-12-31T01:36:26.613Z,100149.16
2022-12-31T01:38:57.161Z,100149.66
2022-12-31T01:41:32.091Z,100144.31
2022-12-31T01:44:23.190Z,100149.97
2022-12-31T01:46:55.319Z,100141.78
2022-12-31T01:49:45.301Z,100143.34
2022-12-31T01:52:21.306Z,100141.09
2022-12-31T01:54:55.162Z,100148.09
2022-12-31T01:57:22.982Z,100143.63
2022-12-31T01:59:50.243Z,100152.94
2022-12-31T02:02:17.541Z,100143.91
2022-12-31T02:04:44.495Z,100164.31
2022-12-31T02:07:12.785Z,100162.91
2022-12-31T02:09:41.996Z,100148.66
2022-12-31T02:12:09.947Z,100148.19
2022-12-31T02:14:46.328Z,100148.94
2022-12-31T02:18:06.814Z,100148.56
2022-12-31T02:21:24.435Z,100156.59
2022-12-31T02:24:17.583Z,100138.13
2022-12-31T02:27:16.623Z,100147.09
2022-12-31T02:30:14.420Z,100150.44
2022-12-31T02:33:20.639Z,100150.97
2022-12-31T02:36:13.021Z,100154.16
2022-12-31T02:38:45.450Z,100156.22
2022-12-31T02:41:37.531Z,100167.94
2022-12-31T02:44:27.676Z,100160.13
2022-12-31T02:47:09.404Z,100159.84
2022-12-31T02:49:58.863Z,100169.44
2022-12-31T02:52:43.681Z,100158.53
2022-12-31T02:55:35.363Z,100139.31
2022-12-31T02:58:45.028Z,100160.72
2022-12-31T03:01:34.836Z,100167.44
2022-12-31T03:04:25.782Z,100169.13
2022-12-31T03:06:53.653Z,100170.88
2022-12-31T03:09:20.513Z,100166.75
2022-12-31T03:12:09.344Z,100170.53
2022-12-31T03:14:36.922Z,100178.88
2022-12-31T03:17:03.720Z,100169.03
2022-12-31T03:19:49.084Z,100170.06
2022-12-31T03:22:27.680Z,100177.81
2022-12-31T03:25:24.051Z,100165.13
2022-12-31T03:27:53.766Z,100170.13
2022-12-31T03:30:22.497Z,100160.28
2022-12-31T03:32:50.556Z,100161.59
2022-12-31T03:35:20.560Z,100188.63
2022-12-31T03:37:49.062Z,100183.69
2022-12-31T03:40:18.315Z,100203.63
2022-12-31T03:42:44.969Z,100204.19
2022-12-31T03:45:13.028Z,100196.56
2022-12-31T03:47:40.467Z,100202.50
2022-12-31T03:50:09.779Z,100170.44
2022-12-31T03:52:37.613Z,100208.41
2022-12-31T03:55:05.582Z,100193.50
2022-12-31T03:57:32.960Z,100200.56
2022-12-31T03:59:59.657Z,100194.59
2022-12-31T04:02:29.097Z,100193.75
2022-12-31T04:04:56.293Z,100200.56
2022-12-31T04:07:23.571Z,100193.09
2022-12-31T04:09:50.315Z,100197.56
2022-12-31T04:12:17.407Z,100196.63
2022-12-31T04:14:44.193Z,100195.34
2022-12-31T04:17:10.908Z,100187.59
2022-12-31T04:19:37.703Z,100181.75
2022-12-31T04:22:05.129Z,100189.47
2022-12-31T04:24:31.976Z,100186.31
2022-12-31T04:27:05.329Z,100183.88
2022-12-31T04:29:34.388Z,100183.59
2022-12-31T04:32:01.119Z,100206.44
2022-12-31T04:34:27.822Z,100200.19
2022-12-31T04:36:54.544Z,100207.72
2022-12-31T04:39:21.265Z,100197.41
2022-12-31T04:41:49.941Z,100205.69
2022-12-31T04:44:17.129Z,100206.06
2022-12-31T04:46:44.078Z,100214.69
2022-12-31T04:49:11.379Z,100211.00
2022-12-31T04:51:38.911Z,100213.81
2022-12-31T04:54:06.077Z,100208.25
2022-12-31T04:56:33.223Z,100222.06
2022-12-31T04:59:00.009Z,100223.94
2022-12-31T05:01:26.768Z,100212.47
2022-12-31T05:03:53.652Z,100221.97
2022-12-31T05:06:23.370Z,100217.09
2022-12-31T05:08:50.617Z,100204.72
2022-12-31T05:11:17.937Z,100209.13
2022-12-31T05:13:44.754Z,100219.38
2022-12-31T05:16:11.754Z,100200.06
2022-12-31T05:18:44.029Z,100206.28
2022-12-31T05:21:30.927Z,100207.69
2022-12-31T05:24:15.537Z,100199.50
2022-12-31T05:26:43.872Z,100188.00
2022-12-31T05:29:11.202Z,100196.41
2022-12-31T05:31:37.875Z,100216.38
2022-12-31T05:34:04.513Z,100206.56
2022-12-31T05:36:31.282Z,100231.41
2022-12-31T05:38:58.010Z,100230.56
2022-12-31T05:41:24.658Z,100243.72
2022-12-31T05:43:52.126Z,100245.22
2022-12-31T05:46:19.757Z,100237.16
2022-12-31T05:48:46.549Z,100229.50
2022-12-31T05:51:13.199Z,100225.03
2022-12-31T05:53:39.849Z,100236.19
2022-12-31T05:56:06.702Z,100242.03
2022-12-31T05:58:33.367Z,100241.19
2022-12-31T06:01:00.140Z,100226.69
2022-12-31T06:03:27.069Z,100237.63
2022-12-31T06:05:53.766Z,100245.44
2022-12-31T06:08:20.501Z,100262.34
2022-12-31T06:10:47.379Z,100249.78
2022-12-31T06:13:14.060Z,100264.22
2022-12-31T06:15:40.902Z,100258.06
2022-12-31T06:18:08.019Z,100264.91
2022-12-31T06:20:38.189Z,100262.34
2022-12-31T06:23:05.594Z,100261.41
2022-12-31T06:25:34.204Z,100277.91
2022-12-31T06:28:01.062Z,100290.41
2022-12-31T06:30:27.770Z,100287.91
2022-12-31T06:32:55.470Z,100294.66
2022-12-31T06:35:22.179Z,100291.00
2022-12-31T06:37:49.586Z,100291.75
2022-12-31T06:40:16.358Z,100291.00
2022-12-31T06:42:43.074Z,100286.56
2022-12-31T06:45:10.402Z,100311.25
2022-12-31T06:47:37.195Z,100295.25
2022-12-31T06:50:04.618Z,100324.19
2022-12-31T06:52:31.348Z,100314.00
2022-12-31T06:54:58.678Z,100326.69
2022-12-31T06:57:25.758Z,100335.75
2022-12-31T06:59:53.393Z,100326.63
2022-12-31T07:02:42.595Z,100328.81
2022-12-31T07:05:41.783Z,100349.97
2022-12-31T07:08:31.074Z,100346.22
2022-12-31T07:11:27.046Z,100343.22
2022-12-31T07:14:18.071Z,100338.59
2022-12-31T07:16:56.513Z,100353.41
2022-12-31T07:19:51.108Z,100344.41
2022-12-31T07:22:22.513Z,100345.03
2022-12-31T07:24:49.552Z,100351.66
2022-12-31T07:28:01.500Z,100348.13
2022-12-31T07:30:39.137Z,100343.69
2022-12-31T07:33:40.567Z,100342.94
2022-12-31T07:36:51.950Z,100338.78
2022-12-31T07:40:01.042Z,100347.91
2022-12-31T07:42:57.676Z,100350.03
2022-12-31T07:45:41.395Z,100350.22
2022-12-31T07:48:28.822Z,100362.66
2022-12-31T07:50:57.517Z,100353.47
2022-12-31T07:53:27.053Z,100354.97
2022-12-31T07:55:58.343Z,100372.00
2022-12-31T07:58:26.166Z,100363.75
2022-12-31T08:00:56.411Z,100366.16
2022-12-31T08:04:06.673Z,100370.53
2022-12-31T08:06:42.525Z,100375.13
2022-12-31T08:09:25.455Z,100376.75
2022-12-31T08:12:02.433Z,100393.56
2022-12-31T08:14:30.535Z,100387.53
2022-12-31T08:16:58.522Z,100389.91
2022-12-31T08:19:28.644Z,100396.31
2022-12-31T08:22:46.768Z,100402.53
2022-12-31T08:25:28.640Z,100401.44
2022-12-31T08:28:16.734Z,100408.19
2022-12-31T08:31:19.077Z,100387.38
2022-12-31T08:34:16.818Z,100397.13
2022-12-31T08:36:55.576Z,100409.69
2022-12-31T08:39:54.121Z,100404.09
2022-12-31T08:42:56.357Z,100424.00
2022-12-31T08:45:38.110Z,100409.63
2022-12-31T08:48:18.586Z,100425.28
2022-12-31T08:50:45.771Z,100435.56
2022-12-31T08:53:12.961Z,100437.63
2022-12-31T08:55:41.920Z,100435.69
2022-12-31T08:58:23.002Z,100425.44
2022-12-31T09:00:54.666Z,100451.19
2022-12-31T09:03:45.508Z,100429.09
2022-12-31T09:06:32.123Z,100437.25
2022-12-31T09:09:16.696Z,100440.78
2022-12-31T09:12:08.233Z,100456.19
2022-12-31T09:15:03.249Z,100463.75
2022-12-31T09:17:52.011Z,100463.88
2022-12-31T09:20:42.694Z,100480.94
2022-12-31T09:23:12.204Z,100466.03
2022-12-31T09:25:56.546Z,100494.50
2022-12-31T09:28:48.639Z,100502.81
2022-12-31T09:31:33.682Z,100523.66
2022-12-31T09:34:26.329Z,100509.38
2022-12-31T09:37:01.763Z,100525.06
2022-12-31T09:39:45.437Z,100526.00
2022-12-31T09:42:51.051Z,100529.19
2022-12-31T09:45:52.124Z,100539.84
2022-12-31T09:49:27.949Z,100537.69
2022-12-31T09:52:31.775Z,100542.06
2022-12-31T09:55:07.818Z,100535.72
2022-12-31T09:57:41.925Z,100543.38
2022-12-31T10:00:24.384Z,100550.81
2022-12-31T10:03:36.885Z,100558.69
2022-12-31T10:06:55.487Z,100576.09
2022-12-31T10:09:43.169Z,100580.03
2022-12-31T10:12:46.786Z,100555.56
2022-12-31T10:15:49.727Z,100557.75
2022-12-31T10:19:00.091Z,100569.16
2022-12-31T10:21:44.270Z,100574.97
2022-12-31T10:24:39.417Z,100556.16
2022-12-31T10:27:40.502Z,100550.81
2022-12-31T10:30:22.692Z,100572.53
2022-12-31T10:33:32.126Z,100561.69
2022-12-31T10:36:31.845Z,100569.78
2022-12-31T10:39:24.754Z,100557.44
2022-12-31T10:42:28.083Z,100549.59
2022-12-31T10:45:39.991Z,100566.69
2022-12-31T10:48:34.541Z,100574.16
2022-12-31T10:51:09.995Z,100554.72
2022-12-31T10:54:14.324Z,100543.22
2022-12-31T10:57:40.403Z,100554.72
2022-12-31T11:00:21.201Z,100533.19
2022-12-31T11:03:29.801Z,100545.38
2022-12-31T11:06:40.136Z,100550.06
2022-12-31T11:09:15.887Z,100547.00
2022-12-31T11:12:05.804Z,100542.00
2022-12-31T11:14:40.033Z,100562.47
2022-12-31T11:17:53.771Z,100559.44
2022-12-31T11:20:41.781Z,100554.63
2022-12-31T11:23:32.530Z,100557.25
2022-12-31T11:26:08.341Z,100563.00
2022-12-31T11:29:05.252Z,100546.78
2022-12-31T11:31:49.158Z,100557.34
2022-12-31T11:34:27.743Z,100552.00
2022-12-31T11:37:32.302Z,100555.75
2022-12-31T11:40:42.083Z,100554.28
2022-12-31T11:43:30.742Z,100561.94
2022-12-31T11:46:21.661Z,100572.56
2022-12-31T11:49:10.939Z,100563.38
2022-12-31T11:52:01.031Z,100570.06
2022-12-31T11:54:42.887Z,100562.53
2022-12-31T11:57:35.274Z,100559.16
2022-12-31T12:00:25.172Z,100566.31
2022-12-31T12:02:54.320Z,100575.25
2022-12-31T12:05:24.186Z,100567.63
2022-12-31T12:07:52.764Z,100556.22
2022-12-31T12:10:36.479Z,100572.03
2022-12-31T12:13:27.979Z,100570.88
2022-12-31T12:16:02.009Z,100559.56
2022-12-31T12:18:51.873Z,100553.91
2022-12-31T12:21:24.396Z,100553.59
2022-12-31T12:24:21.506Z,100556.09
2022-12-31T12:26:49.041Z,100560.91
2022-12-31T12:29:35.350Z,100550.16
2022-12-31T12:32:22.945Z,100558.31
2022-12-31T12:34:50.261Z,100561.63
2022-12-31T12:37:33.212Z,100556.31
2022-12-31T12:40:06.006Z,100558.31
2022-12-31T12:42:33.108Z,100556.91
2022-12-31T12:45:23.008Z,100551.75
2022-12-31T12:47:57.704Z,100560.47
2022-12-31T12:50:35.966Z,100562.50
2022-12-31T12:53:44.489Z,100560.41
2022-12-31T12:56:42.639Z,100567.91
2022-12-31T12:59:59.236Z,100574.19
2022-12-31T13:02:58.945Z,100573.59
2022-12-31T13:05:50.095Z,100599.59
2022-12-31T13:08:54.626Z,100593.06
2022-12-31T13:11:51.511Z,100592.78
2022-12-31T13:14:42.962Z,100600.63
2022-12-31T13:17:49.755Z,100589.72
2022-12-31T13:20:38.022Z,100582.06
2022-12-31T13:23:39.446Z,100601.69
2022-12-31T13:26:33.453Z,100604.53
2022-12-31T13:29:02.988Z,100597.44
2022-12-31T13:31:36.773Z,100601.44
2022-12-31T13:34:28.998Z,100590.63
2022-12-31T13:37:06.898Z,100578.50
2022-12-31T13:39:40.890Z,100581.91
2022-12-31T13:42:40.261Z,100589.41
2022-12-31T13:45:18.822Z,100593.19
2022-12-31T13:47:52.653Z,100577.97
2022-12-31T13:51:03.529Z,100591.81
2022-12-31T13:53:42.099Z,100587.41
2022-12-31T13:56:28.134Z,100583.19
2022-12-31T13:59:13.313Z,100591.56
2022-12-31T14:02:27.637Z,100609.38
2022-12-31T14:05:03.523Z,100611.25
2022-12-31T14:07:45.795Z,100600.50
2022-12-31T14:10:22.036Z,100601.44
2022-12-31T14:13:06.899Z,100591.41
2022-12-31T14:15:52.802Z,100590.13
2022-12-31T14:18:47.077Z,100581.13
2022-12-31T14:21:40.014Z,100578.78
2022-12-31T14:24:21.645Z,100580.06
2022-12-31T14:26:55.438Z,100596.34
2022-12-31T14:29:37.587Z,100603.69
2022-12-31T14:32:47.950Z,100604.03
2022-12-31T14:35:53.921Z,100602.19
2022-12-31T14:38:55.084Z,100602.38
2022-12-31T14:41:44.009Z,100601.69
2022-12-31T14:44:46.232Z,100598.34
2022-12-31T14:47:27.324Z,100599.19
2022-12-31T14:50:11.220Z,100598.63
2022-12-31T14:52:59.812Z,100597.66
2022-12-31T14:55:33.655Z,100605.97
2022-12-31T15:01:01.169Z,100604.28
2022-12-31T15:03:30.833Z,100608.66
2022-12-31T15:06:11.940Z,100615.00
2022-12-31T15:09:26.667Z,100629.13
2022-12-31T15:12:33.432Z,100616.22
2022-12-31T15:15:25.009Z,100616.66
2022-12-31T15:18:27.014Z,100628.88
2022-12-31T15:21:28.146Z,100626.09
2022-12-31T15:23:55.506Z,100624.41
2022-12-31T15:26:27.148Z,100624.31
2022-12-31T15:29:03.990Z,100642.34
2022-12-31T15:31:34.629Z,100634.22
2022-12-31T15:34:05.138Z,100645.16
2022-12-31T15:36:38.938Z,100627.53
2022-12-31T15:39:10.722Z,100626.00
2022-12-31T15:42:18.620Z,100635.59
2022-12-31T15:44:50.747Z,100636.44
2022-12-31T15:47:30.800Z,100634.66
2022-12-31T15:50:03.722Z,100633.25
2022-12-31T15:52:42.574Z,100632.88
2022-12-31T15:55:25.755Z,100628.84
2022-12-31T15:57:58.631Z,100624.06
2022-12-31T16:00:28.586Z,100626.94
2022-12-31T16:02:55.995Z,100629.03
2022-12-31T16:05:26.673Z,100628.34
2022-12-31T16:07:58.518Z,100630.81
2022-12-31T16:10:30.459Z,100626.25
2022-12-31T16:12:58.759Z,100626.47
2022-12-31T16:15:32.756Z,100633.91
2022-12-31T16:18:02.118Z,100625.16
2022-12-31T16:20:32.124Z,100614.75
2022-12-31T16:23:03.479Z,100618.78
2022-12-31T16:25:37.067Z,100614.03
2022-12-31T16:28:04.065Z,100616.16
2022-12-31T16:30:33.521Z,100628.75
2022-12-31T16:33:06.057Z,100623.28
2022-12-31T16:35:36.953Z,100621.22
2022-12-31T16:38:15.397Z,100614.31
2022-12-31T16:41:01.790Z,100618.66
2022-12-31T16:43:41.981Z,100621.78
2022-12-31T16:46:09.083Z,100623.09
2022-12-31T16:48:36.803Z,100618.41
2022-12-31T16:51:04.131Z,100622.13
2022-12-31T16:53:36.778Z,100626.41
2022-12-31T16:56:11.203Z,100634.78
2022-12-31T16:58:42.729Z,100635.53
2022-12-31T17:01:17.062Z,100644.56
2022-12-31T17:03:49.247Z,100641.53
2022-12-31T17:06:20.007Z,100647.06
2022-12-31T17:09:15.362Z,100631.13
2022-12-31T17:11:45.350Z,100620.81
2022-12-31T17:14:16.361Z,100619.34
2022-12-31T17:17:02.630Z,100621.31
2022-12-31T17:19:36.406Z,100624.44
2022-12-31T17:22:19.989Z,100622.31
2022-12-31T17:24:50.043Z,100620.63
2022-12-31T17:27:17.482Z,100611.63
2022-12-31T17:29:44.194Z,100607.13
2022-12-31T17:32:37.476Z,100601.44
2022-12-31T17:35:31.032Z,100609.53
2022-12-31T17:38:22.947Z,100612.03
2022-12-31T17:41:04.160Z,100604.38
2022-12-31T17:43:35.498Z,100604.97
2022-12-31T17:46:10.144Z,100609.78
2022-12-31T17:48:37.459Z,100595.53
2022-12-31T17:51:04.545Z,100600.75
2022-12-31T17:53:31.199Z,100605.59
2022-12-31T17:56:03.706Z,100595.31
2022-12-31T17:58:38.441Z,100596.50
2022-12-31T18:01:07.703Z,100603.78
2022-12-31T18:03:34.590Z,100600.06
2022-12-31T18:06:01.998Z,100597.28
2022-12-31T18:08:28.994Z,100600.50
2022-12-31T18:10:55.727Z,100593.41
2022-12-31T18:13:29.695Z,100588.38
2022-12-31T18:15:56.430Z,100595.34
2022-12-31T18:18:25.847Z,100597.97
2022-12-31T18:20:58.054Z,100586.59
2022-12-31T18:23:46.235Z,100588.97
2022-12-31T18:26:19.666Z,100580.31
2022-12-31T18:28:47.006Z,100593.19
2022-12-31T18:31:22.544Z,100583.25
2022-12-31T18:33:50.649Z,100590.25
2022-12-31T18:36:19.958Z,100590.31
2022-12-31T18:38:46.710Z,100595.38
2022-12-31T18:41:29.388Z,100599.06
2022-12-31T18:43:56.267Z,100596.03
2022-12-31T18:46:25.240Z,100579.75
2022-12-31T18:48:52.077Z,100574.97
2022-12-31T18:51:29.321Z,100575.22
2022-12-31T18:53:59.065Z,100577.13
2022-12-31T18:56:26.073Z,100583.78
2022-12-31T18:58:52.797Z,100577.84
2022-12-31T19:01:35.532Z,100580.09
2022-12-31T19:04:14.183Z,100585.56
2022-12-31T19:06:41.777Z,100587.91
2022-12-31T19:09:23.725Z,100596.16
2022-12-31T19:11:56.029Z,100599.63
2022-12-31T19:14:25.770Z,100594.00
2022-12-31T19:16:54.307Z,100594.31
2022-12-31T19:19:21.548Z,100586.88
2022-12-31T19:21:48.344Z,100592.28
2022-12-31T19:24:23.385Z,100591.88
2022-12-31T19:26:51.009Z,100594.66
2022-12-31T19:29:27.070Z,100610.81
2022-12-31T19:31:54.750Z,100603.25
2022-12-31T19:34:21.554Z,100612.84
2022-12-31T19:36:48.244Z,100612.03
2022-12-31T19:39:18.516Z,100619.63
2022-12-31T19:41:46.000Z,100625.25
2022-12-31T19:44:18.494Z,100627.88
2022-12-31T19:46:46.525Z,100630.56
2022-12-31T19:49:14.511Z,100630.22
2022-12-31T19:51:42.244Z,100642.84
2022-12-31T19:54:12.054Z,100644.19
2022-12-31T19:56:38.747Z,100642.72
2022-12-31T19:59:06.656Z,100662.50
2022-12-31T20:01:33.504Z,100659.56
2022-12-31T20:04:00.811Z,100656.19
2022-12-31T20:06:27.581Z,100652.03
2022-12-31T20:08:54.313Z,100665.28
2022-12-31T20:11:24.029Z,100653.31
2022-12-31T20:13:53.671Z,100665.81
2022-12-31T20:16:24.406Z,100673.69
2022-12-31T20:18:51.499Z,100680.34
2022-12-31T20:21:22.162Z,100681.66
2022-12-31T20:23:50.772Z,100690.56
2022-12-31T20:26:19.040Z,100686.28
2022-12-31T20:28:46.306Z,100684.84
2022-12-31T20:31:18.446Z,100704.06
2022-12-31T20:33:45.692Z,100708.09
2022-12-31T20:36:15.235Z,100686.94
2022-12-31T20:38:42.164Z,100698.41
2022-12-31T20:41:18.096Z,100704.41
2022-12-31T20:43:45.537Z,100701.25
2022-12-31T20:46:19.415Z,100699.09
2022-12-31T20:48:47.949Z,100703.69
2022-12-31T20:51:16.474Z,100704.25
2022-12-31T20:53:49.635Z,100702.00
2022-12-31T20:56:17.297Z,100707.47
2022-12-31T20:58:44.670Z,100714.72
2022-12-31T21:01:11.867Z,100726.09
2022-12-31T21:06:29.783Z,100727.78
2022-12-31T21:08:59.180Z,100724.22
2022-12-31T21:11:45.324Z,100734.69
2022-12-31T21:14:12.085Z,100742.41
2022-12-31T21:16:39.084Z,100742.75
2022-12-31T21:19:05.986Z,100732.91
2022-12-31T21:21:32.661Z,100741.94
2022-12-31T21:23:59.327Z,100741.78
2022-12-31T21:26:26.004Z,100736.19
2022-12-31T21:28:53.634Z,100736.63
2022-12-31T21:31:20.425Z,100741.63
2022-12-31T21:33:48.384Z,100739.34
2022-12-31T21:36:16.045Z,100741.94
2022-12-31T21:38:43.745Z,100737.06
2022-12-31T21:41:34.834Z,100742.91
2022-12-31T21:44:02.842Z,100741.63
2022-12-31T21:46:30.401Z,100738.44
2022-12-31T21:48:58.989Z,100741.13
2022-12-31T21:51:26.447Z,100742.06
2022-12-31T21:53:53.151Z,100734.03
2022-12-31T21:56:21.277Z,100743.41
2022-12-31T21:59:13.683Z,100754.63
2022-12-31T22:01:59.523Z,100745.25
2022-12-31T22:07:12.996Z,100736.06
2022-12-31T22:09:39.789Z,100747.53
2022-12-31T22:12:06.680Z,100751.06
2022-12-31T22:14:33.408Z,100753.94
2022-12-31T22:17:00.042Z,100764.38
2022-12-31T22:19:26.771Z,100761.34
2022-12-31T22:21:53.478Z,100760.94
2022-12-31T22:24:20.137Z,100771.22
2022-12-31T22:26:47.062Z,100774.16
2022-12-31T22:29:14.083Z,100770.72
2022-12-31T22:31:40.819Z,100774.41
2022-12-31T22:34:07.694Z,100775.53
2022-12-31T22:36:34.470Z,100781.81
2022-12-31T22:39:01.163Z,100784.44
2022-12-31T22:41:28.852Z,100794.06
2022-12-31T22:44:03.709Z,100787.63
2022-12-31T22:46:32.397Z,100783.75
2022-12-31T22:49:01.888Z,100790.19
2022-12-31T22:51:54.711Z,100789.66
2022-12-31T22:54:17.180Z,100786.56
2022-12-31T22:56:43.851Z,100792.16
2022-12-31T22:59:10.900Z,100786.75
2022-12-31T23:01:37.777Z,100777.50
2022-12-31T23:04:05.417Z,100781.81
2022-12-31T23:06:32.342Z,100773.41
2022-12-31T23:09:18.215Z,100778.69
2022-12-31T23:11:44.876Z,100782.47
2022-12-31T23:14:35.545Z,100768.28
2022-12-31T23:17:31.401Z,100775.47
2022-12-31T23:20:18.513Z,100773.91
2022-12-31T23:23:05.370Z,100775.03
2022-12-31T23:25:38.276Z,100772.31
2022-12-31T23:28:06.363Z,100774.16
2022-12-31T23:30:33.205Z,100787.19
2022-12-31T23:33:00.207Z,100786.69
2022-12-31T23:35:27.034Z,100780.25
2022-12-31T23:37:53.729Z,100780.25
2022-12-31T23:40:21.811Z,100783.31
2022-12-31T23:42:49.994Z,100780.22
2022-12-31T23:45:16.830Z,100788.69
2022-12-31T23:47:43.621Z,100784.53
2022-12-31T23:50:10.434Z,100791.53
2022-12-31T23:52:37.141Z,100801.25
2022-12-31T23:55:04.302Z,100792.59
2022-12-31T23:57:31.107Z,100798.81
2022-12-31T23:59:57.801Z,100784.63
